Time;durP1;ratioP1;P1;durP2;ratioP2;P2;SDS_P1;SDS_P2;PMS_P1;PMS_P2;Temp;Humidity;BMP_temperature;BMP_pressure;BME280_temperature;BME280_humidity;BME280_pressure;Samples;Min_cycle;Max_cycle;Signal;HPM_P1;HPM_P2
2022/12/31 00:01:00;;;;;;;5.73;3.10;;;;;;;3.65;100.00;96544.81;5111808;28;20760;-55
2022/12/31 00:03:28;;;;;;;1.70;1.60;;;;;;;3.56;100.00;96542.56;5111836;28;20467;-55
2022/12/31 00:05:58;;;;;;;2.10;2.00;;;;;;;3.32;100.00;96486.19;5111768;28;20435;-55
2022/12/31 00:08:26;;;;;;;3.13;2.90;;;;;;;3.62;100.00;96524.22;5112216;28;20420;-55
2022/12/31 00:10:55;;;;;;;4.30;1.57;;;;;;;3.67;100.00;96540.16;5115789;28;20833;-55
2022/12/31 00:13:23;;;;;;;6.13;2.57;;;;;;;3.64;100.00;96545.00;5115814;28;20436;-55
2022/12/31 00:15:51;;;;;;;3.53;2.50;;;;;;;3.07;100.00;96517.31;5115785;28;20423;-55
2022/12/31 00:18:20;;;;;;;3.73;3.43;;;;;;;3.22;100.00;96554.69;5115521;28;20454;-55
2022/12/31 00:20:48;;;;;;;9.80;2.03;;;;;;;3.30;100.00;96547.66;5115279;28;20498;-55
2022/12/31 00:23:18;;;;;;;3.97;3.50;;;;;;;3.56;100.00;96553.84;5115062;28;20514;-55
2022/12/31 00:25:46;;;;;;;2.70;2.50;;;;;;;3.26;100.00;96539.41;5114952;28;20967;-55
2022/12/31 00:28:14;;;;;;;1.47;1.30;;;;;;;3.06;100.00;96548.94;5115050;28;20420;-55
2022/12/31 00:30:42;;;;;;;3.40;2.57;;;;;;;3.25;100.00;96548.25;5114891;28;20432;-55
2022/12/31 00:33:11;;;;;;;2.90;2.60;;;;;;;3.53;100.00;96559.47;5115676;28;20755;-55
2022/12/31 00:35:39;;;;;;;2.90;2.70;;;;;;;3.75;100.00;96565.41;5115292;28;20498;-56
2022/12/31 00:38:07;;;;;;;2.83;2.30;;;;;;;3.88;100.00;96562.84;5115352;28;20420;-55
2022/12/31 00:40:37;;;;;;;1.53;1.43;;;;;;;3.94;100.00;96590.09;5114610;28;20433;-55
2022/12/31 00:43:05;;;;;;;4.90;3.17;;;;;;;3.85;100.00;96553.56;5115071;28;21009;-55
2022/12/31 00:45:51;;;;;;;2.83;2.63;;;;;;;3.72;100.00;96565.78;5115076;28;20865;-55
2022/12/31 00:48:19;;;;;;;9.80;5.33;;;;;;;3.65;100.00;96560.53;5114352;28;20432;-55
2022/12/31 00:50:48;;;;;;;6.33;3.37;;;;;;;3.63;100.00;96559.94;5114483;28;20467;-55
2022/12/31 00:53:16;;;;;;;4.30;3.83;;;;;;;3.68;100.00;96549.66;5115107;28;20458;-55
2022/12/31 00:55:55;;;;;;;3.00;2.90;;;;;;;3.52;100.00;96549.16;5115302;28;20423;-55
2022/12/31 00:58:23;;;;;;;2.50;2.37;;;;;;;3.57;100.00;96552.03;5114999;28;20459;-55
2022/12/31 01:00:51;;;;;;;3.70;2.23;;;;;;;3.69;100.00;96534.75;5115045;28;20500;-55
2022/12/31 01:03:20;;;;;;;2.10;2.00;;;;;;;3.97;100.00;96545.13;5114335;28;20517;-54
2022/12/31 01:05:49;;;;;;;5.60;4.03;;;;;;;3.95;100.00;96545.31;5114956;28;20454;-54
2022/12/31 01:08:17;;;;;;;4.40;2.67;;;;;;;3.78;100.00;96547.47;5114194;28;20431;-55
2022/12/31 01:13:36;;;;;;;10.53;3.63;;;;;;;3.36;100.00;96560.00;5114724;28;20522;-55
2022/12/31 01:16:08;;;;;;;3.43;3.23;;;;;;;3.36;100.00;96562.63;5115013;28;20880;-55
2022/12/31 01:18:37;;;;;;;6.40;5.87;;;;;;;3.04;100.00;96571.88;5114645;28;20427;-55
2022/12/31 01:21:07;;;;;;;4.83;4.73;;;;;;;2.43;100.00;96576.84;5113988;28;20533;-55
2022/12/31 01:23:36;;;;;;;8.30;4.53;;;;;;;2.36;100.00;96578.59;5114487;28;20463;-55
2022/12/31 01:26:08;;;;;;;2.17;2.07;;;;;;;2.58;100.00;96574.19;5113888;28;20939;-55
2022/12/31 01:28:37;;;;;;;9.13;2.07;;;;;;;2.95;100.00;96573.84;5114292;28;20518;-55
2022/12/31 01:31:07;;;;;;;3.63;3.37;;;;;;;3.13;100.00;96576.00;5113408;28;20440;-55
2022/12/31 01:33:36;;;;;;;13.23;2.43;;;;;;;3.15;100.00;96573.97;5114169;28;20412;-55
2022/12/31 01:36:07;;;;;;;2.43;2.33;;;;;;;2.95;100.00;96518.88;5114600;28;20507;-55
2022/12/31 01:38:36;;;;;;;5.63;2.90;;;;;;;2.85;100.00;96507.09;5114290;28;20474;-55
2022/12/31 01:41:06;;;;;;;3.83;3.43;;;;;;;3.01;100.00;96572.28;5114455;28;20435;-55
2022/12/31 01:43:47;;;;;;;2.97;2.77;;;;;;;3.10;100.00;96563.28;5113987;28;20550;-55
2022/12/31 01:46:23;;;;;;;5.47;3.03;;;;;;;2.83;100.00;96561.47;5114323;28;20427;-55
2022/12/31 01:48:54;;;;;;;9.00;4.57;;;;;;;2.65;100.00;96558.53;5113600;28;20420;-55
2022/12/31 01:51:24;;;;;;;6.43;3.20;;;;;;;3.08;100.00;96554.81;5113862;28;20485;-55
2022/12/31 01:53:52;;;;;;;2.30;2.10;;;;;;;3.34;100.00;96559.41;5113770;28;20443;-55
2022/12/31 01:56:23;;;;;;;2.70;2.40;;;;;;;3.37;100.00;96551.94;5113698;28;20420;-55
2022/12/31 01:58:56;;;;;;;4.97;4.03;;;;;;;2.35;100.00;96548.19;5113840;28;20451;-55
2022/12/31 02:01:27;;;;;;;5.10;3.90;;;;;;;2.26;100.00;96565.03;5113158;28;20514;-55
2022/12/31 02:03:57;;;;;;;4.50;4.20;;;;;;;2.08;100.00;96564.63;5113189;28;20498;-55
2022/12/31 02:06:33;;;;;;;3.90;3.17;;;;;;;1.73;100.00;96575.91;5113396;28;20503;-55
2022/12/31 02:09:02;;;;;;;3.53;3.27;;;;;;;1.84;100.00;96580.69;5113704;28;20431;-55
2022/12/31 02:11:35;;;;;;;6.40;3.33;;;;;;;1.96;100.00;96589.66;5113703;28;20416;-55
2022/12/31 02:14:08;;;;;;;1.53;1.23;;;;;;;2.28;100.00;96588.38;5113478;28;20478;-55
2022/12/31 02:16:44;;;;;;;8.00;2.97;;;;;;;2.05;100.00;96538.84;5113122;28;20436;-55
2022/12/31 02:19:35;;;;;;;9.27;1.37;;;;;;;1.85;100.00;96489.00;5113457;28;20428;-54
2022/12/31 02:22:09;;;;;;;4.10;3.30;;;;;;;2.50;100.00;96580.31;5113344;28;20471;-55
2022/12/31 02:25:09;;;;;;;0.87;0.87;;;;;;;2.65;100.00;96574.22;5111194;28;20480;-55
2022/12/31 02:27:53;;;;;;;2.03;1.93;;;;;;;2.73;100.00;96564.44;5113452;28;20463;-55
2022/12/31 02:30:24;;;;;;;3.03;0.60;;;;;;;2.63;100.00;96577.03;5112714;28;20515;-55
2022/12/31 02:33:04;;;;;;;2.07;1.97;;;;;;;2.70;100.00;96579.69;5112051;28;20507;-55
2022/12/31 02:35:43;;;;;;;4.67;2.77;;;;;;;2.46;100.00;96518.91;5113203;28;20439;-55
2022/12/31 02:38:16;;;;;;;2.30;2.10;;;;;;;2.65;100.00;96522.69;5113248;28;20514;-55
2022/12/31 02:40:45;;;;;;;2.83;2.70;;;;;;;2.87;100.00;96560.91;5112331;28;20428;-55
2022/12/31 02:43:14;;;;;;;1.70;1.70;;;;;;;2.96;100.00;96579.91;5111931;28;20561;-55
2022/12/31 02:45:47;;;;;;;5.80;3.30;;;;;;;2.96;100.00;96578.06;5113019;28;20417;-55
2022/12/31 02:48:31;;;;;;;1.33;1.33;;;;;;;2.64;100.00;96578.66;5112803;28;20940;-55
2022/12/31 02:51:14;;;;;;;1.73;1.40;;;;;;;1.81;100.00;96591.50;5112736;28;20471;-55
2022/12/31 02:54:09;;;;;;;3.60;3.50;;;;;;;1.58;100.00;96596.03;5112725;28;20467;-55
2022/12/31 02:56:43;;;;;;;0.67;0.67;;;;;;;1.64;100.00;96549.09;5112624;28;20438;-55
2022/12/31 03:02:14;;;;;;;0.50;0.50;;;;;;;2.68;100.00;96595.59;5112262;28;20439;-54
2022/12/31 03:04:48;;;;;;;2.20;2.10;;;;;;;2.76;100.00;96595.44;5111714;28;20483;-54
2022/12/31 03:07:21;;;;;;;1.53;1.53;;;;;;;2.79;100.00;96599.50;5112169;28;20424;-55
2022/12/31 03:09:50;;;;;;;1.23;1.23;;;;;;;2.57;100.00;96603.94;5112491;28;20450;-54
2022/12/31 03:15:18;;;;;;;1.87;1.77;;;;;;;2.62;100.00;96601.59;5112454;28;20420;-55
2022/12/31 03:17:54;;;;;;;6.00;2.50;;;;;;;2.60;100.00;96597.53;5112646;28;20493;-55
2022/12/31 03:23:13;;;;;;;0.80;0.80;;;;;;;2.39;100.00;96580.03;5112442;28;20472;-55
2022/12/31 03:25:42;;;;;;;1.63;1.63;;;;;;;2.45;100.00;96590.53;5112118;28;20427;-55
2022/12/31 03:28:12;;;;;;;3.20;3.10;;;;;;;2.38;100.00;96594.09;5112158;28;20474;-55
2022/12/31 03:30:43;;;;;;;1.70;1.00;;;;;;;2.28;100.00;96589.19;5112073;28;20468;-55
2022/12/31 03:33:13;;;;;;;3.23;2.40;;;;;;;2.55;100.00;96601.50;5112458;28;20812;-55
2022/12/31 03:35:43;;;;;;;5.80;1.90;;;;;;;2.68;100.00;96595.59;5111677;28;20489;-55
2022/12/31 03:38:12;;;;;;;3.03;2.83;;;;;;;1.37;100.00;96431.41;5112396;28;20416;-55
2022/12/31 03:40:42;;;;;;;3.87;3.67;;;;;;;2.09;100.00;96610.72;5111964;28;20526;-54
2022/12/31 03:43:11;;;;;;;7.33;3.70;;;;;;;1.56;100.00;96614.50;5111677;28;20962;-55
2022/12/31 03:45:39;;;;;;;5.20;4.90;;;;;;;1.52;100.00;96622.91;5111938;28;20434;-55
2022/12/31 03:48:09;;;;;;;3.53;3.13;;;;;;;1.31;100.00;96618.41;5111978;28;20420;-55
2022/12/31 03:50:39;;;;;;;5.10;2.00;;;;;;;0.72;100.00;96544.44;5111669;28;20558;-55
2022/12/31 03:53:07;;;;;;;3.80;2.60;;;;;;;1.19;100.00;96627.63;5112033;28;20943;-55
2022/12/31 03:55:36;;;;;;;3.90;1.63;;;;;;;1.19;100.00;96630.25;5111909;28;20475;-55
2022/12/31 03:58:05;;;;;;;1.80;1.70;;;;;;;1.19;100.00;96581.44;5111883;28;20428;-55
2022/12/31 04:00:33;;;;;;;1.90;1.80;;;;;;;1.76;100.00;96630.44;5112059;28;20459;-54
2022/12/31 04:03:02;;;;;;;5.43;4.73;;;;;;;1.90;100.00;96627.78;5111993;28;20428;-54
2022/12/31 04:05:31;;;;;;;3.33;2.43;;;;;;;1.77;100.00;96601.50;5111738;28;20466;-54
2022/12/31 04:08:01;;;;;;;6.97;3.47;;;;;;;1.65;100.00;96630.88;5111696;28;20467;-54
2022/12/31 04:10:30;;;;;;;4.63;3.37;;;;;;;1.53;100.00;96624.50;5111812;28;20456;-54
2022/12/31 04:13:01;;;;;;;3.03;2.93;;;;;;;1.31;100.00;96630.63;5111531;28;20507;-54
2022/12/31 04:15:29;;;;;;;0.70;0.70;;;;;;;1.52;100.00;96620.28;5111711;28;20507;-54
2022/12/31 04:17:57;;;;;;;3.07;1.90;;;;;;;1.27;100.00;96555.25;5111457;28;20488;-54
2022/12/31 04:20:29;;;;;;;4.40;1.17;;;;;;;1.96;100.00;96628.06;5111615;28;20455;-53
2022/12/31 04:22:57;;;;;;;1.83;1.73;;;;;;;1.88;100.00;96587.97;5110951;28;20432;-53
2022/12/31 04:25:27;;;;;;;1.50;1.43;;;;;;;2.35;100.00;96620.66;5111796;28;20505;-54
2022/12/31 04:27:55;;;;;;;2.27;1.37;;;;;;;2.21;100.00;96631.97;5111511;28;20565;-54
2022/12/31 04:30:23;;;;;;;0.63;0.63;;;;;;;1.61;100.00;96580.81;5111781;28;20424;-54
2022/12/31 04:32:51;;;;;;;2.10;2.00;;;;;;;1.79;100.00;96633.50;5111385;28;20460;-53
2022/12/31 04:35:20;;;;;;;2.40;0.97;;;;;;;1.33;100.00;96532.00;5111499;28;20888;-54
2022/12/31 04:37:48;;;;;;;1.07;1.07;;;;;;;2.19;100.00;96636.56;5111373;28;20936;-54
2022/12/31 04:40:17;;;;;;;1.73;1.67;;;;;;;2.00;100.00;96637.97;5111475;28;20439;-54
2022/12/31 04:42:46;;;;;;;1.40;1.30;;;;;;;1.85;100.00;96645.84;5111410;28;20519;-55
2022/12/31 04:45:15;;;;;;;3.23;1.47;;;;;;;2.03;100.00;96636.78;5111348;28;20466;-55
2022/12/31 04:47:43;;;;;;;1.37;1.37;;;;;;;1.95;100.00;96632.47;5110543;28;20435;-54
2022/12/31 04:50:11;;;;;;;1.30;1.20;;;;;;;2.11;100.00;96640.09;5111089;28;20979;-54
2022/12/31 04:52:40;;;;;;;2.63;2.43;;;;;;;2.13;100.00;96638.13;5111580;28;20427;-54
2022/12/31 04:55:10;;;;;;;2.20;2.10;;;;;;;1.93;100.00;96637.06;5113651;28;20511;-54
2022/12/31 04:57:39;;;;;;;6.60;1.97;;;;;;;2.03;100.00;96642.00;5114331;28;20823;-55
2022/12/31 05:00:10;;;;;;;2.43;2.30;;;;;;;1.99;100.00;96638.16;5114185;28;20507;-54
2022/12/31 05:02:38;;;;;;;2.07;1.97;;;;;;;2.18;100.00;96637.56;5114024;28;20436;-54
2022/12/31 05:05:07;;;;;;;1.83;1.10;;;;;;;2.08;100.00;96605.66;5115023;28;20558;-54
2022/12/31 05:07:43;;;;;;;1.60;1.60;;;;;;;2.38;100.00;96647.25;5115304;28;20460;-54
2022/12/31 05:10:12;;;;;;;1.13;1.13;;;;;;;2.56;100.00;96649.44;5115469;28;20455;-54
2022/12/31 05:12:40;;;;;;;1.90;1.83;;;;;;;2.60;100.00;96644.66;5114638;28;20427;-54
2022/12/31 05:15:10;;;;;;;2.70;2.60;;;;;;;2.62;100.00;96642.66;5114539;28;20435;-54
2022/12/31 05:17:38;;;;;;;1.80;1.70;;;;;;;2.31;100.00;96659.44;5114534;28;20853;-54
2022/12/31 05:20:07;;;;;;;1.93;1.63;;;;;;;2.11;100.00;96644.53;5114333;28;20506;-54
2022/12/31 05:22:36;;;;;;;2.20;2.20;;;;;;;2.15;100.00;96654.44;5114479;28;20467;-54
2022/12/31 05:25:05;;;;;;;1.80;1.70;;;;;;;1.97;100.00;96653.22;5114387;28;20502;-55
2022/12/31 05:27:34;;;;;;;2.57;2.47;;;;;;;1.75;100.00;96655.75;5114105;28;20438;-55
2022/12/31 05:30:02;;;;;;;5.00;2.10;;;;;;;1.90;100.00;96664.41;5114692;28;20990;-54
2022/12/31 05:32:32;;;;;;;3.60;3.30;;;;;;;1.78;100.00;96665.84;5113946;28;20439;-55
2022/12/31 05:35:01;;;;;;;7.33;2.70;;;;;;;1.62;100.00;96670.47;5114172;28;20523;-55
2022/12/31 05:37:29;;;;;;;3.53;3.33;;;;;;;1.65;100.00;96670.09;5113861;28;20773;-55
2022/12/31 05:39:58;;;;;;;3.20;3.10;;;;;;;2.04;100.00;96673.22;5114242;28;20424;-55
2022/12/31 05:42:27;;;;;;;1.83;1.73;;;;;;;2.11;100.00;96676.72;5114009;28;20511;-55
2022/12/31 05:44:55;;;;;;;11.47;3.23;;;;;;;2.05;100.00;96677.44;5114189;28;20474;-55
2022/12/31 05:47:23;;;;;;;3.40;1.80;;;;;;;1.98;100.00;96687.00;5114035;28;20793;-60
2022/12/31 05:49:53;;;;;;;1.97;1.87;;;;;;;1.85;100.00;96687.66;5113633;28;20840;-60
2022/12/31 05:52:22;;;;;;;1.70;1.60;;;;;;;2.10;100.00;96687.38;5113798;28;20436;-61
2022/12/31 05:54:50;;;;;;;1.83;1.73;;;;;;;2.17;100.00;96696.09;5114165;28;21026;-61
2022/12/31 05:57:18;;;;;;;3.60;2.33;;;;;;;2.19;100.00;96692.31;5113703;28;20442;-60
2022/12/31 05:59:47;;;;;;;1.33;1.33;;;;;;;2.24;100.00;96687.34;5114155;28;20416;-61
2022/12/31 06:02:15;;;;;;;2.07;1.90;;;;;;;1.78;100.00;96649.34;5113711;28;20476;-61
2022/12/31 06:04:43;;;;;;;5.17;3.60;;;;;;;1.56;100.00;96695.50;5113716;28;20466;-61
2022/12/31 06:07:13;;;;;;;3.80;1.97;;;;;;;2.02;100.00;96690.91;5112468;28;20497;-61
2022/12/31 06:09:42;;;;;;;2.43;2.27;;;;;;;2.22;100.00;96702.41;5113675;28;20437;-61
2022/12/31 06:12:10;;;;;;;5.20;1.97;;;;;;;2.23;100.00;96703.19;5113782;28;20516;-61
2022/12/31 06:14:38;;;;;;;2.03;1.93;;;;;;;2.52;100.00;96703.97;5113385;28;20518;-61
2022/12/31 06:17:12;;;;;;;1.90;1.80;;;;;;;2.49;100.00;96704.34;5113481;28;20430;-60
2022/12/31 06:19:41;;;;;;;5.03;4.60;;;;;;;1.98;100.00;96707.13;5113452;28;20519;-61
2022/12/31 06:22:09;;;;;;;3.27;3.13;;;;;;;2.24;100.00;96702.22;5113349;28;20954;-61
2022/12/31 06:24:41;;;;;;;1.03;0.80;;;;;;;2.10;100.00;96709.09;5113177;28;20518;-61
2022/12/31 06:27:09;;;;;;;11.63;2.30;;;;;;;2.11;100.00;96704.66;5113248;28;20459;-61
2022/12/31 06:29:40;;;;;;;16.47;5.27;;;;;;;1.90;100.00;96716.69;5113553;28;20755;-61
2022/12/31 06:32:08;;;;;;;5.87;5.13;;;;;;;1.40;100.00;96718.34;5113092;28;20456;-61
2022/12/31 06:34:36;;;;;;;6.60;5.23;;;;;;;1.10;100.00;96717.50;5113405;28;20511;-61
2022/12/31 06:37:05;;;;;;;6.73;2.37;;;;;;;1.03;100.00;96711.34;5113348;28;20780;-60
2022/12/31 06:39:33;;;;;;;7.90;3.07;;;;;;;1.12;100.00;96729.38;5112781;28;20432;-61
2022/12/31 06:42:03;;;;;;;3.13;2.93;;;;;;;1.14;100.00;96735.22;5112679;28;20515;-61
2022/12/31 06:44:31;;;;;;;1.90;1.80;;;;;;;1.55;100.00;96737.47;5112035;28;20436;-61
2022/12/31 06:46:59;;;;;;;3.53;3.20;;;;;;;1.32;100.00;96697.56;5112974;28;21030;-61
2022/12/31 06:49:27;;;;;;;2.87;2.77;;;;;;;2.05;100.00;96734.19;5112594;28;20489;-61
2022/12/31 06:51:56;;;;;;;1.17;0.93;;;;;;;2.28;100.00;96738.28;5112756;28;20940;-61
2022/12/31 06:54:24;;;;;;;7.60;1.70;;;;;;;2.30;100.00;96696.28;5112493;28;20515;-60
2022/12/31 06:56:53;;;;;;;7.33;2.83;;;;;;;2.72;100.00;96746.06;5112758;28;20503;-61
2022/12/31 06:59:28;;;;;;;1.73;1.70;;;;;;;3.08;100.00;96731.13;5112922;28;20451;-61
2022/12/31 07:02:17;;;;;;;1.67;1.57;;;;;;;3.51;99.07;96734.50;5112423;28;20927;-61
2022/12/31 07:05:13;;;;;;;1.37;0.77;;;;;;;3.26;96.04;96733.28;5112220;28;21030;-60
2022/12/31 07:07:49;;;;;;;1.23;1.13;;;;;;;2.81;100.00;96736.28;5112728;28;20848;-61
2022/12/31 07:10:30;;;;;;;1.27;1.17;;;;;;;3.26;100.00;96748.19;5111935;28;20424;-62
2022/12/31 07:13:22;;;;;;;1.87;1.77;;;;;;;3.23;99.72;96738.91;5112271;28;20932;-62
2022/12/31 07:16:10;;;;;;;2.50;2.40;;;;;;;3.03;100.00;96751.00;5110099;28;20439;-62
2022/12/31 07:18:47;;;;;;;9.43;6.00;;;;;;;2.58;100.00;96750.31;5112002;28;20424;-61
2022/12/31 07:21:22;;;;;;;8.80;6.13;;;;;;;2.01;100.00;96759.06;5112079;28;20927;-62
2022/12/31 07:23:51;;;;;;;4.33;2.87;;;;;;;2.03;100.00;96752.66;5112371;28;20473;-60
2022/12/31 07:26:33;;;;;;;6.70;4.93;;;;;;;1.92;100.00;96753.91;5112097;28;20518;-62
2022/12/31 07:29:10;;;;;;;3.73;3.63;;;;;;;1.85;100.00;96762.66;5111805;28;20460;-59
2022/12/31 07:31:55;;;;;;;3.30;3.00;;;;;;;2.12;100.00;96763.84;5112025;28;20435;-61
2022/12/31 07:34:30;;;;;;;2.77;2.57;;;;;;;2.43;100.00;96770.47;5111938;28;20424;-62
2022/12/31 07:37:03;;;;;;;3.13;2.73;;;;;;;2.51;100.00;96770.38;5112188;28;20450;-61
2022/12/31 07:39:39;;;;;;;1.37;1.37;;;;;;;2.88;100.00;96752.88;5111802;28;20423;-60
2022/12/31 07:42:15;;;;;;;2.20;1.60;;;;;;;3.56;98.66;96760.13;5111814;28;20441;-60
2022/12/31 07:44:56;;;;;;;0.97;0.93;;;;;;;3.52;97.85;96759.69;5111939;28;20451;-59
2022/12/31 07:47:27;;;;;;;2.90;2.70;;;;;;;3.34;99.28;96761.94;5111677;28;20523;-60
2022/12/31 07:49:56;;;;;;;6.50;6.07;;;;;;;3.38;100.00;96760.59;5111529;28;20471;-59
2022/12/31 07:52:25;;;;;;;0.97;0.97;;;;;;;3.37;100.00;96761.56;5112068;28;20455;-60
2022/12/31 07:54:54;;;;;;;3.53;3.23;;;;;;;3.02;100.00;96744.94;5111696;28;20984;-60
2022/12/31 07:57:28;;;;;;;2.53;2.37;;;;;;;3.39;100.00;96750.91;5111315;28;20451;-60
2022/12/31 08:00:07;;;;;;;3.37;3.17;;;;;;;3.81;99.95;96756.88;5111312;28;20439;-60
2022/12/31 08:03:07;;;;;;;6.40;3.90;;;;;;;4.09;98.07;96766.53;5111729;28;20912;-61
2022/12/31 08:05:44;;;;;;;1.80;1.73;;;;;;;4.21;94.10;96764.97;5108023;28;20439;-60
2022/12/31 08:08:24;;;;;;;3.57;3.47;;;;;;;4.05;94.26;96762.69;5111911;28;20778;-60
2022/12/31 08:11:03;;;;;;;17.43;3.77;;;;;;;3.32;97.04;96774.44;5111748;28;20416;-60
2022/12/31 08:13:32;;;;;;;4.10;3.67;;;;;;;3.09;100.00;96781.66;5111974;28;20431;-60
2022/12/31 08:16:02;;;;;;;10.63;4.37;;;;;;;3.05;100.00;96780.44;5111538;28;20436;-60
2022/12/31 08:18:32;;;;;;;8.20;3.67;;;;;;;3.00;100.00;96735.66;5111619;28;20957;-60
2022/12/31 08:21:16;;;;;;;4.73;3.60;;;;;;;4.26;95.68;96771.28;5111426;28;20420;-60
2022/12/31 08:23:56;;;;;;;3.40;2.30;;;;;;;4.66;89.11;96771.44;5111146;28;20432;-60
2022/12/31 08:26:35;;;;;;;1.50;1.43;;;;;;;3.73;90.02;96715.06;5111584;28;20863;-60
2022/12/31 08:29:16;;;;;;;11.43;2.10;;;;;;;4.23;90.58;96768.22;5112139;28;20434;-60
2022/12/31 08:31:52;;;;;;;2.43;2.33;;;;;;;4.11;92.64;96767.97;5115620;28;20503;-60
2022/12/31 08:34:28;;;;;;;2.40;2.30;;;;;;;4.48;93.21;96754.41;5115082;28;20435;-59
2022/12/31 08:37:04;;;;;;;1.70;1.67;;;;;;;4.68;90.45;96758.94;5114760;28;20533;-59
2022/12/31 08:39:48;;;;;;;7.23;1.70;;;;;;;4.98;89.95;96760.25;5114889;28;20919;-59
2022/12/31 08:42:22;;;;;;;4.57;4.13;;;;;;;5.73;86.73;96754.63;5115235;28;20427;-59
2022/12/31 08:45:00;;;;;;;5.53;5.13;;;;;;;6.00;84.11;96756.22;5115374;28;20432;-60
2022/12/31 08:47:37;;;;;;;4.43;3.80;;;;;;;6.28;82.05;96759.41;5115557;28;20548;-59
2022/12/31 08:50:15;;;;;;;6.50;5.90;;;;;;;5.94;80.26;96709.72;5114974;28;20566;-59
2022/12/31 08:52:44;;;;;;;5.30;5.10;;;;;;;5.61;81.51;96706.28;5115250;28;20455;-59
2022/12/31 08:55:15;;;;;;;8.80;8.23;;;;;;;5.43;83.24;96759.50;5114947;28;20891;-59
2022/12/31 08:57:52;;;;;;;7.10;6.30;;;;;;;5.03;84.87;96758.59;5114849;28;20430;-60
2022/12/31 09:00:23;;;;;;;10.00;5.30;;;;;;;4.91;86.06;96744.44;5115048;28;20905;-60
2022/12/31 09:03:10;;;;;;;2.63;2.43;;;;;;;5.19;86.05;96741.66;5114945;28;20430;-61
2022/12/31 09:05:57;;;;;;;13.83;4.70;;;;;;;5.75;83.50;96742.88;5114890;28;20440;-60
2022/12/31 09:08:36;;;;;;;5.27;2.70;;;;;;;6.23;82.19;96738.16;5115351;28;20435;-61
2022/12/31 09:11:13;;;;;;;4.60;4.40;;;;;;;6.71;80.92;96728.03;5115186;28;20503;-60
2022/12/31 09:14:09;;;;;;;2.17;2.07;;;;;;;6.79;78.53;96709.34;5114702;28;20433;-59
2022/12/31 09:16:46;;;;;;;4.87;4.47;;;;;;;6.96;76.80;96722.84;5114782;28;20423;-59
2022/12/31 09:19:15;;;;;;;10.00;4.90;;;;;;;6.47;77.95;96689.28;5114672;28;20420;-59
2022/12/31 09:21:46;;;;;;;6.67;6.23;;;;;;;5.57;79.21;96631.41;5114384;28;20432;-60
2022/12/31 09:24:16;;;;;;;8.30;5.30;;;;;;;6.28;79.46;96719.91;5115017;28;20495;-60
2022/12/31 09:26:57;;;;;;;4.97;4.57;;;;;;;6.73;78.00;96712.03;5114561;28;20467;-58
2022/12/31 09:29:40;;;;;;;2.50;1.67;;;;;;;7.36;76.55;96681.97;5114730;28;20511;-58
2022/12/31 09:32:19;;;;;;;4.60;4.23;;;;;;;8.00;74.36;96712.47;5114418;28;20921;-58
2022/12/31 09:34:55;;;;;;;4.00;3.67;;;;;;;7.77;72.93;96697.25;5114053;28;20433;-59
2022/12/31 09:37:36;;;;;;;7.93;7.30;;;;;;;8.57;71.42;96683.00;5114312;28;20431;-59
2022/12/31 09:40:42;;;;;;;12.63;4.50;;;;;;;8.74;70.99;96683.16;5113989;28;20454;-59
2022/12/31 09:43:56;;;;;;;5.90;4.67;;;;;;;7.94;71.56;96686.94;5114152;28;20452;-58
2022/12/31 09:47:11;;;;;;;3.57;3.40;;;;;;;8.87;71.47;96699.66;5113964;28;20439;-60
2022/12/31 09:50:18;;;;;;;1.80;1.70;;;;;;;9.81;68.72;96669.69;5113481;28;21023;-60
2022/12/31 09:53:12;;;;;;;2.93;2.70;;;;;;;10.40;66.72;96667.78;5113696;28;20434;-60
2022/12/31 09:55:48;;;;;;;3.60;3.30;;;;;;;11.68;62.30;96666.09;5113880;28;20469;-61
2022/12/31 09:58:32;;;;;;;2.17;2.00;;;;;;;11.63;61.11;96658.00;5115842;28;20536;-61
2022/12/31 10:01:10;;;;;;;2.80;2.60;;;;;;;11.83;62.90;96652.22;5113942;28;20444;-61
2022/12/31 10:03:58;;;;;;;3.03;2.33;;;;;;;12.02;59.13;96592.41;5113636;28;20525;-62
2022/12/31 10:06:33;;;;;;;7.30;3.83;;;;;;;13.03;57.75;96630.78;5113690;28;20438;-64
2022/12/31 10:09:21;;;;;;;2.57;2.47;;;;;;;13.33;56.72;96636.41;5114039;28;20815;-69
2022/12/31 10:12:23;;;;;;;2.70;2.60;;;;;;;14.14;55.16;96624.38;5113608;28;20526;-69
2022/12/31 10:15:20;;;;;;;4.00;3.67;;;;;;;14.55;53.46;96623.53;5113698;28;20878;-67
2022/12/31 10:17:58;;;;;;;5.23;4.93;;;;;;;14.43;52.52;96614.13;5113406;28;20436;-69
2022/12/31 10:20:47;;;;;;;8.40;4.03;;;;;;;14.91;52.79;96629.75;5113679;28;20428;-66
2022/12/31 10:23:45;;;;;;;11.37;4.77;;;;;;;14.98;52.72;96613.47;5113607;28;20431;-63
2022/12/31 10:26:35;;;;;;;3.97;3.17;;;;;;;15.67;51.84;96611.09;5113579;28;20553;-63
2022/12/31 10:29:23;;;;;;;7.13;4.30;;;;;;;15.57;50.89;96595.09;5113188;28;20432;-62
2022/12/31 10:32:04;;;;;;;4.23;3.57;;;;;;;15.92;50.33;96594.22;5112967;28;20466;-61
2022/12/31 10:34:44;;;;;;;4.73;2.97;;;;;;;16.06;50.49;96590.72;5112919;28;20427;-53
2022/12/31 10:37:17;;;;;;;1.70;1.60;;;;;;;16.71;49.06;96576.25;5113296;28;20428;-54
2022/12/31 10:39:56;;;;;;;1.30;1.20;;;;;;;18.29;50.47;96582.63;5112763;28;20514;-54
2022/12/31 10:42:51;;;;;;;1.40;1.30;;;;;;;17.71;45.65;96549.72;5113242;28;20435;-54
2022/12/31 10:45:53;;;;;;;2.63;2.53;;;;;;;17.66;45.14;96576.59;5112784;28;20435;-53
2022/12/31 10:49:01;;;;;;;7.40;2.90;;;;;;;16.93;45.99;96567.78;5086635;28;20483;-54
2022/12/31 10:52:06;;;;;;;3.90;3.40;;;;;;;16.89;47.93;96545.34;5112412;28;20786;-53
2022/12/31 10:55:05;;;;;;;4.07;3.77;;;;;;;17.49;46.54;96542.16;5113084;28;20460;-52
2022/12/31 10:58:08;;;;;;;4.73;4.13;;;;;;;18.22;45.14;96547.28;5112484;28;20844;-52
2022/12/31 11:00:52;;;;;;;4.63;2.93;;;;;;;17.93;44.50;96549.25;5112580;28;20420;-53
2022/12/31 11:04:02;;;;;;;2.70;2.60;;;;;;;18.02;45.44;96542.97;5112361;28;20427;-53
2022/12/31 11:07:02;;;;;;;1.47;1.27;;;;;;;19.11;43.81;96532.06;5071235;28;20432;-53
2022/12/31 11:10:15;;;;;;;5.63;1.27;;;;;;;18.55;43.63;96532.91;5112522;28;20455;-57
2022/12/31 11:13:20;;;;;;;1.83;1.70;;;;;;;18.38;42.89;96508.41;5112297;28;20440;-59
2022/12/31 11:16:09;;;;;;;8.67;3.80;;;;;;;18.32;43.43;96517.63;5112595;28;20482;-59
2022/12/31 11:18:48;;;;;;;1.87;1.77;;;;;;;18.58;43.29;96518.91;5112518;28;20515;-59
2022/12/31 11:21:29;;;;;;;2.20;1.80;;;;;;;19.14;42.23;96510.00;5112404;28;20438;-58
2022/12/31 11:24:05;;;;;;;1.50;1.50;;;;;;;19.67;42.06;96510.44;5112183;28;20438;-60
2022/12/31 11:26:47;;;;;;;1.57;1.00;;;;;;;19.54;41.85;96506.63;5112228;28;20457;-58
2022/12/31 11:29:31;;;;;;;1.67;1.57;;;;;;;19.61;42.13;96512.41;5112037;28;20830;-58
2022/12/31 11:32:13;;;;;;;1.70;1.57;;;;;;;18.32;43.78;96507.69;5112522;28;20439;-59
2022/12/31 11:35:02;;;;;;;3.60;1.33;;;;;;;18.72;44.13;96441.88;5112092;28;20480;-59
2022/12/31 11:37:40;;;;;;;1.40;1.30;;;;;;;19.93;42.99;96493.50;5111197;28;20973;-59
2022/12/31 11:40:40;;;;;;;3.00;2.80;;;;;;;19.86;41.81;96486.94;5111785;28;20792;-59
2022/12/31 11:43:22;;;;;;;2.10;1.63;;;;;;;19.70;41.34;96485.63;5104418;28;20504;-58
2022/12/31 11:46:09;;;;;;;1.80;1.63;;;;;;;19.28;42.69;96479.34;5110934;28;20511;-58
2022/12/31 11:48:52;;;;;;;2.30;1.20;;;;;;;20.04;41.91;96424.91;5110696;28;20933;-58
2022/12/31 11:51:43;;;;;;;6.03;2.53;;;;;;;20.17;40.93;96483.31;5111319;28;20454;-58
2022/12/31 11:54:49;;;;;;;2.90;2.80;;;;;;;19.75;41.23;96482.84;5111535;28;20548;-57
2022/12/31 11:57:26;;;;;;;1.30;1.20;;;;;;;19.08;41.83;96401.78;5095834;28;20530;-57
2022/12/31 11:59:58;;;;;;;1.87;1.77;;;;;;;19.97;40.89;96466.78;5111395;28;20510;-57
2022/12/31 12:02:29;;;;;;;1.53;1.43;;;;;;;19.99;41.16;96443.06;5111364;28;20913;-57
2022/12/31 12:05:01;;;;;;;1.67;1.57;;;;;;;20.34;40.62;96452.31;5115796;28;20422;-58
2022/12/31 12:07:38;;;;;;;5.67;1.57;;;;;;;20.23;40.63;96468.69;5115387;28;20476;-59
2022/12/31 12:10:23;;;;;;;5.17;2.50;;;;;;;20.20;40.58;96466.56;5115844;28;20428;-58
2022/12/31 12:12:57;;;;;;;5.60;2.33;;;;;;;20.15;40.97;96463.97;5115826;28;20420;-59
2022/12/31 12:15:29;;;;;;;6.20;4.90;;;;;;;19.62;42.20;96418.00;5115490;28;20974;-58
2022/12/31 12:18:00;;;;;;;2.87;2.57;;;;;;;21.17;40.02;96457.88;5115251;28;20499;-58
2022/12/31 12:20:32;;;;;;;4.13;2.90;;;;;;;20.57;40.29;96460.09;5115442;28;20523;-58
2022/12/31 12:23:12;;;;;;;2.63;2.07;;;;;;;20.80;39.81;96444.75;5115525;28;20459;-58
2022/12/31 12:25:43;;;;;;;2.80;2.57;;;;;;;19.71;40.38;96321.22;5115216;28;20496;-59